createdAt,value
2022-08-05T00:01:29.273Z,4.85
2022-08-05T00:04:02.095Z,5.25
2022-08-05T00:06:33.285Z,5.07
2022-08-05T00:09:02.797Z,5.03
2022-08-05T00:11:30.540Z,5.22
2022-08-05T00:14:12.777Z,5.47
2022-08-05T00:16:53.107Z,5.32
2022-08-05T00:19:24.961Z,5.22
2022-08-05T00:22:01.116Z,4.68
2022-08-05T00:24:30.941Z,5.10
2022-08-05T00:26:59.324Z,5.25
2022-08-05T00:29:27.612Z,4.60
2022-08-05T00:32:12.853Z,5.30
2022-08-05T00:35:05.245Z,5.18
2022-08-05T00:37:51.003Z,4.93
2022-08-05T00:40:26.639Z,4.88
2022-08-05T00:42:59.734Z,5.22
2022-08-05T00:45:38.867Z,5.10
2022-08-05T00:48:31.475Z,5.15
2022-08-05T00:50:58.543Z,4.85
2022-08-05T00:54:00.085Z,4.90
2022-08-05T00:56:13.107Z,4.80
2022-08-05T00:58:45.007Z,5.03
2022-08-05T01:01:13.359Z,4.90
2022-08-05T01:03:40.259Z,4.78
2022-08-05T01:06:14.240Z,5.30
2022-08-05T01:08:44.131Z,5.22
2022-08-05T01:11:22.191Z,5.20
2022-08-05T01:14:00.154Z,5.03
2022-08-05T01:16:35.889Z,4.80
2022-08-05T01:19:46.166Z,4.85
2022-08-05T01:22:46.795Z,5.30
2022-08-05T01:25:41.063Z,5.30
2022-08-05T01:28:23.362Z,5.07
2022-08-05T01:31:09.378Z,5.32
2022-08-05T01:33:55.392Z,5.80
2022-08-05T01:36:28.290Z,6.13
2022-08-05T01:38:56.688Z,5.95
2022-08-05T01:41:29.699Z,6.60
2022-08-05T01:43:57.132Z,6.00
2022-08-05T01:46:42.134Z,6.57
2022-08-05T01:49:24.241Z,6.22
2022-08-05T01:51:58.164Z,6.38
2022-08-05T01:54:29.956Z,5.95
2022-08-05T01:58:12.973Z,6.38
2022-08-05T01:59:48.327Z,6.88
2022-08-05T02:02:17.061Z,6.13
2022-08-05T02:04:49.516Z,5.95
2022-08-05T02:07:22.077Z,6.05
2022-08-05T02:09:50.424Z,6.45
2022-08-05T02:12:36.310Z,5.32
2022-08-05T02:15:19.847Z,5.60
2022-08-05T02:18:33.297Z,5.55
2022-08-05T02:21:19.921Z,5.60
2022-08-05T02:23:52.104Z,5.45
2022-08-05T02:26:26.945Z,5.78
2022-08-05T02:28:56.176Z,5.70
2022-08-05T02:31:28.582Z,5.93
2022-08-05T02:34:06.741Z,5.28
2022-08-05T02:36:41.876Z,5.38
2022-08-05T02:39:10.453Z,5.25
2022-08-05T02:41:57.889Z,5.60
2022-08-05T02:44:27.063Z,5.53
2022-08-05T02:46:59.919Z,5.25
2022-08-05T02:49:36.399Z,5.30
2022-08-05T02:52:08.006Z,5.88
2022-08-05T02:54:37.702Z,5.47
2022-08-05T02:58:10.044Z,5.90
2022-08-05T02:59:57.993Z,5.55
2022-08-05T03:02:36.114Z,6.10
2022-08-05T03:05:04.388Z,5.75
2022-08-05T03:08:00.868Z,5.30
2022-08-05T03:10:24.491Z,6.15
2022-08-05T03:12:52.469Z,5.85
2022-08-05T03:15:20.502Z,6.00
2022-08-05T03:17:47.084Z,6.60
2022-08-05T03:20:13.927Z,6.30
2022-08-05T03:22:44.100Z,6.30
2022-08-05T03:25:32.484Z,6.00
2022-08-05T03:28:02.413Z,6.75
2022-08-05T03:30:33.951Z,6.30
2022-08-05T03:33:06.034Z,6.63
2022-08-05T03:35:34.072Z,6.85
2022-08-05T03:38:08.080Z,6.28
2022-08-05T03:40:35.751Z,6.82
2022-08-05T03:43:59.235Z,6.65
2022-08-05T03:45:55.131Z,6.20
2022-08-05T03:48:28.242Z,6.13
2022-08-05T03:52:35.028Z,7.10
2022-08-05T03:55:50.017Z,6.30
2022-08-05T03:56:50.489Z,5.68
2022-08-05T03:59:47.252Z,5.32
2022-08-05T04:02:39.153Z,5.22
2022-08-05T04:05:14.980Z,4.72
2022-08-05T04:07:57.247Z,4.70
2022-08-05T04:10:31.961Z,4.63
2022-08-05T04:13:00.461Z,5.03
2022-08-05T04:15:32.845Z,4.18
2022-08-05T04:18:06.906Z,3.72
2022-08-05T04:20:34.556Z,3.97
2022-08-05T04:23:01.604Z,3.72
2022-08-05T04:25:57.759Z,3.90
2022-08-05T04:28:15.349Z,3.75
2022-08-05T04:30:44.110Z,4.03
2022-08-05T04:33:10.834Z,3.75
2022-08-05T04:36:15.988Z,3.60
2022-08-05T04:38:39.702Z,3.60
2022-08-05T04:41:09.645Z,3.83
2022-08-05T04:43:37.781Z,3.85
2022-08-05T04:46:07.506Z,3.72
2022-08-05T04:48:34.225Z,3.60
2022-08-05T04:51:02.537Z,3.70
2022-08-05T04:53:36.718Z,3.10
2022-08-05T04:56:32.810Z,3.42
2022-08-05T04:58:54.394Z,3.97
2022-08-05T05:02:08.196Z,3.70
2022-08-05T05:04:07.646Z,3.65
2022-08-05T05:06:40.376Z,3.58
2022-08-05T05:09:14.318Z,3.63
2022-08-05T05:11:54.138Z,3.65
2022-08-05T05:14:31.344Z,3.90
2022-08-05T05:17:01.813Z,3.75
2022-08-05T05:19:37.102Z,3.60
2022-08-05T05:22:22.658Z,3.60
2022-08-05T05:24:58.006Z,3.22
2022-08-05T05:27:44.943Z,3.90
2022-08-05T05:30:15.626Z,3.15
2022-08-05T05:32:57.170Z,3.53
2022-08-05T05:35:34.256Z,3.60
2022-08-05T05:38:05.645Z,3.40
2022-08-05T05:40:35.753Z,3.17
2022-08-05T05:43:03.154Z,3.20
2022-08-05T05:45:30.058Z,3.25
2022-08-05T05:48:07.028Z,3.47
2022-08-05T05:50:44.128Z,3.17
2022-08-05T05:53:21.052Z,3.50
2022-08-05T05:55:51.927Z,3.20
2022-08-05T05:58:31.926Z,3.50
2022-08-05T06:01:12.327Z,3.30
2022-08-05T06:04:00.872Z,3.20
2022-08-05T06:06:30.987Z,3.30
2022-08-05T06:08:59.344Z,3.03
2022-08-05T06:11:26.203Z,3.42
2022-08-05T06:13:56.017Z,3.10
2022-08-05T06:16:29.447Z,3.78
2022-08-05T06:19:00.801Z,3.15
2022-08-05T06:21:37.254Z,3.42
2022-08-05T06:24:11.427Z,3.47
2022-08-05T06:26:51.530Z,3.20
2022-08-05T06:29:23.817Z,3.03
2022-08-05T06:32:05.724Z,2.95
2022-08-05T06:34:48.185Z,2.72
2022-08-05T06:37:57.083Z,3.20
2022-08-05T06:40:07.628Z,3.50
2022-08-05T06:42:34.315Z,3.15
2022-08-05T06:45:05.210Z,3.17
2022-08-05T06:48:36.927Z,3.08
2022-08-05T06:50:19.871Z,3.58
2022-08-05T06:52:58.762Z,3.22
2022-08-05T06:55:36.499Z,3.25
2022-08-05T06:58:20.316Z,3.35
2022-08-05T07:00:51.145Z,3.25
2022-08-05T07:03:17.855Z,3.53
2022-08-05T07:05:46.391Z,3.53
2022-08-05T07:08:13.569Z,3.53
2022-08-05T07:10:52.790Z,3.40
2022-08-05T07:13:58.488Z,3.75
2022-08-05T07:17:56.989Z,3.60
2022-08-05T07:22:29.031Z,4.00
2022-08-05T07:25:23.621Z,3.65
2022-08-05T07:27:58.634Z,4.00
2022-08-05T07:30:39.005Z,3.50
2022-08-05T07:33:09.868Z,3.70
2022-08-05T07:36:05.058Z,3.78
2022-08-05T07:38:33.580Z,4.07
2022-08-05T07:42:09.396Z,3.63
2022-08-05T07:43:57.108Z,3.85
2022-08-05T07:46:26.351Z,4.20
2022-08-05T07:49:02.440Z,4.45
2022-08-05T07:51:40.297Z,3.40
2022-08-05T07:54:08.340Z,4.00
2022-08-05T07:56:38.968Z,3.92
2022-08-05T07:59:38.255Z,4.03
2022-08-05T08:02:10.740Z,4.15
2022-08-05T08:04:45.436Z,4.00
2022-08-05T08:07:12.965Z,4.03
2022-08-05T08:09:39.602Z,3.97
2022-08-05T08:12:19.936Z,4.00
2022-08-05T08:14:53.179Z,4.45
2022-08-05T08:17:19.797Z,4.18
2022-08-05T08:20:22.991Z,4.10
2022-08-05T08:22:35.582Z,4.18
2022-08-05T08:25:02.895Z,4.28
2022-08-05T08:27:35.624Z,4.45
2022-08-05T08:30:27.631Z,4.43
2022-08-05T08:33:02.743Z,4.78
2022-08-05T08:35:34.803Z,4.07
2022-08-05T08:38:02.039Z,4.10
2022-08-05T08:40:30.089Z,4.38
2022-08-05T08:42:58.523Z,4.40
2022-08-05T08:45:46.870Z,4.28
2022-08-05T08:48:36.146Z,4.38
2022-08-05T08:51:54.622Z,4.05
2022-08-05T08:53:50.981Z,4.40
2022-08-05T08:56:21.031Z,4.20
2022-08-05T08:58:49.590Z,3.88
2022-08-05T09:01:18.981Z,4.25
2022-08-05T09:03:54.525Z,4.03
2022-08-05T09:06:24.200Z,3.92
2022-08-05T09:08:55.154Z,4.53
2022-08-05T09:11:50.872Z,4.18
2022-08-05T09:14:54.846Z,4.10
2022-08-05T09:16:55.649Z,3.92
2022-08-05T09:19:28.002Z,3.92
2022-08-05T09:22:22.325Z,4.07
2022-08-05T09:25:13.862Z,3.95
2022-08-05T09:28:04.810Z,3.47
2022-08-05T09:30:34.546Z,4.28
2022-08-05T09:33:02.449Z,4.07
2022-08-05T09:35:31.488Z,3.88
2022-08-05T09:38:17.363Z,4.30
2022-08-05T09:40:51.832Z,3.90
2022-08-05T09:43:41.043Z,3.63
2022-08-05T09:46:33.791Z,4.00
2022-08-05T09:49:19.417Z,3.75
2022-08-05T09:51:49.392Z,3.92
2022-08-05T09:54:16.835Z,4.00
2022-08-05T09:56:55.567Z,3.42
2022-08-05T09:59:27.566Z,3.85
2022-08-05T10:01:57.682Z,3.67
2022-08-05T10:04:35.957Z,3.95
2022-08-05T10:07:20.187Z,3.55
2022-08-05T10:10:14.062Z,3.38
2022-08-05T10:12:49.658Z,3.80
2022-08-05T10:15:27.137Z,3.33
2022-08-05T10:18:11.135Z,3.30
2022-08-05T10:20:41.891Z,3.45
2022-08-05T10:23:34.485Z,3.63
2022-08-05T10:26:00.460Z,3.53
2022-08-05T10:28:30.254Z,3.47
2022-08-05T10:32:52.875Z,3.60
2022-08-05T10:33:45.967Z,3.42
2022-08-05T10:38:56.615Z,3.30
2022-08-05T10:41:46.495Z,3.42
2022-08-05T10:44:18.438Z,3.25
2022-08-05T10:46:54.105Z,3.40
2022-08-05T10:49:26.550Z,3.35
2022-08-05T10:52:02.554Z,3.47
2022-08-05T10:55:10.191Z,3.63
2022-08-05T10:57:44.740Z,3.15
2022-08-05T11:00:24.070Z,3.30
2022-08-05T11:03:25.674Z,3.28
2022-08-05T11:06:14.550Z,3.72
2022-08-05T11:09:16.385Z,3.30
2022-08-05T11:11:53.711Z,2.88
2022-08-05T11:17:59.134Z,3.50
2022-08-05T11:20:45.307Z,3.40
2022-08-05T11:24:05.019Z,3.45
2022-08-05T11:26:43.165Z,4.15
2022-08-05T11:29:37.265Z,4.65
2022-08-05T11:34:54.434Z,4.60
2022-08-05T11:38:29.278Z,4.53
2022-08-05T11:41:00.620Z,3.78
2022-08-05T11:44:01.026Z,3.42
2022-08-05T11:46:32.741Z,4.00
2022-08-05T11:49:01.500Z,3.28
2022-08-05T11:51:44.604Z,3.35
2022-08-05T11:54:32.789Z,4.07
2022-08-05T11:57:08.678Z,3.30
2022-08-05T11:59:49.724Z,3.15
2022-08-05T12:02:30.600Z,3.40
2022-08-05T12:05:07.158Z,3.50
2022-08-05T12:08:07.567Z,3.00
2022-08-05T12:10:42.829Z,2.95
2022-08-05T12:13:16.905Z,3.38
2022-08-05T12:15:50.235Z,3.47
2022-08-05T12:18:32.743Z,3.30
2022-08-05T12:21:20.554Z,3.60
2022-08-05T12:24:05.107Z,3.17
2022-08-05T12:26:44.296Z,3.38
2022-08-05T12:29:16.088Z,3.40
2022-08-05T12:32:11.606Z,3.38
2022-08-05T12:34:39.171Z,3.58
2022-08-05T12:37:17.648Z,3.50
2022-08-05T12:39:51.604Z,3.50
2022-08-05T12:42:20.576Z,3.50
2022-08-05T12:44:47.901Z,3.70
2022-08-05T12:47:26.358Z,3.30
2022-08-05T12:50:04.197Z,3.30
2022-08-05T12:52:39.348Z,3.38
2022-08-05T12:55:26.683Z,3.70
2022-08-05T12:58:52.342Z,3.70
2022-08-05T13:02:01.312Z,3.72
2022-08-05T13:03:42.233Z,3.47
2022-08-05T13:06:16.147Z,3.45
2022-08-05T13:08:50.770Z,3.45
2022-08-05T13:11:46.930Z,3.22
2022-08-05T13:14:24.660Z,3.42
2022-08-05T13:17:03.647Z,3.67
2022-08-05T13:19:40.322Z,3.72
2022-08-05T13:22:28.249Z,3.40
2022-08-05T13:24:57.879Z,3.25
2022-08-05T13:27:42.267Z,3.40
2022-08-05T13:30:34.712Z,3.38
2022-08-05T13:33:02.415Z,3.40
2022-08-05T13:35:43.315Z,3.65
2022-08-05T13:38:28.283Z,3.55
2022-08-05T13:40:59.144Z,3.60
2022-08-05T13:43:44.433Z,3.33
2022-08-05T13:46:14.424Z,3.40
2022-08-05T13:48:58.678Z,3.40
2022-08-05T13:51:40.064Z,3.20
2022-08-05T13:54:12.698Z,3.28
2022-08-05T13:56:45.467Z,3.70
2022-08-05T13:59:21.152Z,3.22
2022-08-05T14:01:59.203Z,3.50
2022-08-05T14:04:51.414Z,3.47
2022-08-05T14:07:56.853Z,3.30
2022-08-05T14:10:28.897Z,2.97
2022-08-05T14:12:57.739Z,3.58
2022-08-05T14:16:08.477Z,3.05
2022-08-05T14:18:15.106Z,3.55
2022-08-05T14:20:47.249Z,3.55
2022-08-05T14:23:24.511Z,3.78
2022-08-05T14:25:57.836Z,3.58
2022-08-05T14:28:26.962Z,3.30
2022-08-05T14:30:54.842Z,3.35
2022-08-05T14:33:23.015Z,3.53
2022-08-05T14:35:51.863Z,3.22
2022-08-05T14:38:27.710Z,3.75
2022-08-05T14:41:00.260Z,3.58
2022-08-05T14:43:53.969Z,3.53
2022-08-05T14:46:13.813Z,3.20
2022-08-05T14:48:40.775Z,3.40
2022-08-05T14:51:08.505Z,3.50
2022-08-05T14:53:44.297Z,3.40
2022-08-05T14:56:11.852Z,3.45
2022-08-05T14:58:47.752Z,3.78
2022-08-05T15:01:24.339Z,3.42
2022-08-05T15:04:11.570Z,3.83
2022-08-05T15:06:39.029Z,3.53
2022-08-05T15:09:07.410Z,3.88
2022-08-05T15:11:50.961Z,3.50
2022-08-05T15:14:34.837Z,3.63
2022-08-05T15:17:10.060Z,3.63
2022-08-05T15:19:55.780Z,3.10
2022-08-05T15:22:27.317Z,3.35
2022-08-05T15:24:56.214Z,3.30
2022-08-05T15:27:25.825Z,3.60
2022-08-05T15:29:54.315Z,3.55
2022-08-05T15:32:27.485Z,3.22
2022-08-05T15:34:56.171Z,3.40
2022-08-05T15:38:33.086Z,3.17
2022-08-05T15:41:04.793Z,3.30
2022-08-05T15:43:09.217Z,3.88
2022-08-05T15:45:45.548Z,3.25
2022-08-05T15:48:14.032Z,3.08
2022-08-05T15:50:43.929Z,3.50
2022-08-05T15:53:12.984Z,3.65
2022-08-05T15:56:02.116Z,3.22
2022-08-05T15:58:28.577Z,3.50
2022-08-05T16:01:11.933Z,3.40
2022-08-05T16:03:42.602Z,3.60
2022-08-05T16:06:11.505Z,3.70
2022-08-05T16:08:38.933Z,3.20
2022-08-05T16:11:07.282Z,3.20
2022-08-05T16:13:35.160Z,3.58
2022-08-05T16:16:03.384Z,3.55
2022-08-05T16:18:30.750Z,3.47
2022-08-05T16:20:57.635Z,3.30
2022-08-05T16:23:24.322Z,3.60
2022-08-05T16:25:55.792Z,3.42
2022-08-05T16:28:24.210Z,3.40
2022-08-05T16:30:52.160Z,3.63
2022-08-05T16:33:19.712Z,3.40
2022-08-05T16:35:48.798Z,3.80
2022-08-05T16:38:27.833Z,3.40
2022-08-05T16:41:00.210Z,3.85
2022-08-05T16:46:06.371Z,3.53
2022-08-05T16:48:35.812Z,6.70
2022-08-05T16:51:09.067Z,10.30
2022-08-05T16:54:04.807Z,16.75
2022-08-05T16:56:26.259Z,15.55
2022-08-05T16:58:53.104Z,5.25
2022-08-05T17:01:20.239Z,4.95
2022-08-05T17:03:47.455Z,4.07
2022-08-05T17:06:16.634Z,3.40
2022-08-05T17:08:53.190Z,3.70
2022-08-05T17:11:25.697Z,3.40
2022-08-05T17:13:54.668Z,3.50
2022-08-05T17:16:35.835Z,3.47
2022-08-05T17:19:07.709Z,3.22
2022-08-05T17:24:27.993Z,3.63
2022-08-05T17:26:57.378Z,3.72
2022-08-05T17:29:33.059Z,4.10
2022-08-05T17:32:11.611Z,3.75
2022-08-05T17:34:44.093Z,3.35
2022-08-05T17:37:29.483Z,3.80
2022-08-05T17:39:59.961Z,4.20
2022-08-05T17:42:30.113Z,4.80
2022-08-05T17:45:09.840Z,5.10
2022-08-05T17:47:45.757Z,5.68
2022-08-05T17:50:22.622Z,4.40
2022-08-05T17:52:55.066Z,4.43
2022-08-05T17:55:22.859Z,4.07
2022-08-05T17:58:02.256Z,5.10
2022-08-05T18:00:29.580Z,4.60
2022-08-05T18:02:56.554Z,4.00
2022-08-05T18:05:23.814Z,4.10
2022-08-05T18:07:54.711Z,3.88
2022-08-05T18:10:23.908Z,3.97
2022-08-05T18:12:51.225Z,4.00
2022-08-05T18:15:18.144Z,4.70
2022-08-05T18:17:59.025Z,4.18
2022-08-05T18:20:31.881Z,4.32
2022-08-05T18:23:11.966Z,4.20
2022-08-05T18:25:45.369Z,4.30
2022-08-05T18:28:16.534Z,5.53
2022-08-05T18:30:50.823Z,4.47
2022-08-05T18:33:23.085Z,4.43
2022-08-05T18:35:59.952Z,4.88
2022-08-05T18:38:30.997Z,5.90
2022-08-05T18:41:56.735Z,5.45
2022-08-05T18:43:48.694Z,5.78
2022-08-05T18:46:20.053Z,5.18
2022-08-05T18:48:53.857Z,5.25
2022-08-05T18:52:02.989Z,5.40
2022-08-05T18:54:31.721Z,5.35
2022-08-05T18:57:02.068Z,3.55
2022-08-05T18:59:42.873Z,2.78
2022-08-05T19:02:27.545Z,3.05
2022-08-05T19:06:05.736Z,3.03
2022-08-05T19:07:55.252Z,2.50
2022-08-05T19:10:27.947Z,2.90
2022-08-05T19:12:55.603Z,3.20
2022-08-05T19:16:00.165Z,4.07
2022-08-05T19:18:13.411Z,4.30
2022-08-05T19:20:49.107Z,4.40
2022-08-05T19:24:03.502Z,4.13
2022-08-05T19:26:03.259Z,4.63
2022-08-05T19:28:32.815Z,4.55
2022-08-05T19:31:00.832Z,4.65
2022-08-05T19:33:35.256Z,4.53
2022-08-05T19:36:06.028Z,4.45
2022-08-05T19:38:37.021Z,4.60
2022-08-05T19:41:07.087Z,4.40
2022-08-05T19:44:06.629Z,4.70
2022-08-05T19:46:29.951Z,4.30
2022-08-05T19:49:01.241Z,4.30
2022-08-05T19:52:05.917Z,4.85
2022-08-05T19:54:26.685Z,4.80
2022-08-05T19:57:02.225Z,4.90
2022-08-05T20:00:00.534Z,4.35
2022-08-05T20:02:17.566Z,4.72
2022-08-05T20:04:45.817Z,4.47
2022-08-05T20:07:14.358Z,5.45
2022-08-05T20:09:54.409Z,3.75
2022-08-05T20:12:22.433Z,2.90
2022-08-05T20:14:52.345Z,3.40
2022-08-05T20:17:23.688Z,3.67
2022-08-05T20:19:56.792Z,3.35
2022-08-05T20:22:26.554Z,3.17
2022-08-05T20:24:53.862Z,3.63
2022-08-05T20:27:21.138Z,3.40
2022-08-05T20:29:58.380Z,2.90
2022-08-05T20:32:26.901Z,3.17
2022-08-05T20:34:54.059Z,2.75
2022-08-05T20:38:04.957Z,2.20
2022-08-05T20:40:08.880Z,2.10
2022-08-05T20:42:35.669Z,2.38
2022-08-05T20:45:02.868Z,1.95
2022-08-05T20:47:31.760Z,2.28
2022-08-05T20:49:59.094Z,2.20
2022-08-05T20:52:25.890Z,2.35
2022-08-05T20:54:59.639Z,2.20
2022-08-05T20:57:43.684Z,1.90
2022-08-05T21:00:40.283Z,2.22
2022-08-05T21:03:07.064Z,2.45
2022-08-05T21:05:48.293Z,2.28
2022-08-05T21:08:26.788Z,1.95
2022-08-05T21:10:59.990Z,2.38
2022-08-05T21:13:47.084Z,1.80
2022-08-05T21:16:13.973Z,2.40
2022-08-05T21:18:42.943Z,2.08
2022-08-05T21:21:11.846Z,2.10
2022-08-05T21:23:38.968Z,2.50
2022-08-05T21:26:08.135Z,2.97
2022-08-05T21:28:50.515Z,2.15
2022-08-05T21:31:18.305Z,2.30
2022-08-05T21:33:47.909Z,2.17
2022-08-05T21:36:27.657Z,2.20
2022-08-05T21:38:56.990Z,2.05
2022-08-05T21:41:26.050Z,1.80
2022-08-05T21:44:01.840Z,2.47
2022-08-05T21:46:34.534Z,2.15
2022-08-05T21:49:02.719Z,2.13
2022-08-05T21:52:21.547Z,2.33
2022-08-05T21:54:27.844Z,2.53
2022-08-05T21:57:15.498Z,2.00
2022-08-05T22:00:02.935Z,2.85
2022-08-05T22:02:30.999Z,2.53
2022-08-05T22:04:58.686Z,2.63
2022-08-05T22:07:40.137Z,2.30
2022-08-05T22:10:13.466Z,2.17
2022-08-05T22:12:45.102Z,2.38
2022-08-05T22:16:01.946Z,2.97
2022-08-05T22:18:06.268Z,3.00
2022-08-05T22:20:35.677Z,2.90
2022-08-05T22:23:24.697Z,3.15
2022-08-05T22:26:11.856Z,2.88
2022-08-05T22:28:41.778Z,3.60
2022-08-05T22:31:08.450Z,2.65
2022-08-05T22:33:57.820Z,2.90
2022-08-05T22:36:24.983Z,2.85
2022-08-05T22:38:52.118Z,2.78
2022-08-05T22:42:04.422Z,2.80
2022-08-05T22:44:08.856Z,3.03
2022-08-05T22:46:39.562Z,2.90
2022-08-05T22:49:23.551Z,3.22
2022-08-05T22:52:04.447Z,3.22
2022-08-05T22:54:36.686Z,3.00
2022-08-05T22:57:07.101Z,3.13
2022-08-05T22:59:48.485Z,2.97
2022-08-05T23:02:29.776Z,3.00
2022-08-05T23:04:58.363Z,3.38
2022-08-05T23:07:30.391Z,2.65
2022-08-05T23:10:02.141Z,2.70
2022-08-05T23:12:32.988Z,2.75
2022-08-05T23:15:01.472Z,2.97
2022-08-05T23:17:34.851Z,3.13
2022-08-05T23:20:10.387Z,2.78
2022-08-05T23:22:43.712Z,3.00
2022-08-05T23:25:17.631Z,3.10
2022-08-05T23:28:01.542Z,2.85
2022-08-05T23:30:29.075Z,2.95
2022-08-05T23:32:57.846Z,2.88
2022-08-05T23:35:28.480Z,2.88
2022-08-05T23:38:00.780Z,2.80
2022-08-05T23:40:27.516Z,2.58
2022-08-05T23:42:54.171Z,3.53
2022-08-05T23:45:21.043Z,3.00
2022-08-05T23:47:53.624Z,2.83
2022-08-05T23:50:26.096Z,2.97
2022-08-05T23:52:55.335Z,3.20
2022-08-05T23:55:22.503Z,3.15
2022-08-05T23:57:57.529Z,3.20
